createdAt,value
2019-03-02T00:00:42.120Z,9.30
2019-03-02T00:05:48.106Z,8.80
2019-03-02T00:10:52.517Z,8.17
2019-03-02T00:15:56.900Z,8.83
2019-03-02T00:21:01.456Z,8.60
2019-03-02T00:26:06.325Z,8.20
2019-03-02T00:31:11.866Z,8.47
2019-03-02T00:36:19.509Z,7.93
2019-03-02T00:41:22.341Z,8.00
2019-03-02T00:46:26.720Z,8.13
2019-03-02T00:51:31.073Z,8.33
2019-03-02T00:56:35.434Z,8.33
2019-03-02T01:01:39.837Z,7.97
2019-03-02T01:06:45.071Z,8.17
2019-03-02T01:11:50.257Z,7.70
2019-03-02T01:16:55.138Z,7.43
2019-03-02T01:22:00.265Z,8.50
2019-03-02T01:27:04.654Z,7.33
2019-03-02T01:32:09.081Z,7.80
2019-03-02T01:37:13.517Z,7.87
2019-03-02T01:42:17.984Z,8.23
2019-03-02T01:47:22.377Z,7.97
2019-03-02T01:52:30.493Z,8.60
2019-03-02T01:57:33.852Z,7.00
2019-03-02T02:02:38.235Z,7.57
2019-03-02T02:07:42.610Z,6.20
2019-03-02T02:12:47.952Z,6.53
2019-03-02T02:17:53.051Z,6.77
2019-03-02T02:22:58.362Z,6.87
2019-03-02T02:28:02.772Z,5.97
2019-03-02T02:33:07.187Z,6.03
2019-03-02T02:38:16.294Z,6.27
2019-03-02T02:43:21.011Z,6.40
2019-03-02T02:48:26.464Z,7.20
2019-03-02T02:53:29.729Z,6.87
2019-03-02T02:58:34.083Z,7.23
2019-03-02T03:03:38.416Z,7.50
2019-03-02T03:08:44.262Z,7.77
2019-03-02T03:13:48.670Z,7.17
2019-03-02T03:18:53.762Z,7.63
2019-03-02T03:24:03.906Z,7.93
2019-03-02T03:29:09.602Z,7.93
2019-03-02T03:34:11.345Z,8.37
2019-03-02T03:39:15.707Z,8.10
2019-03-02T03:44:25.682Z,8.90
2019-03-02T03:49:30.127Z,8.87
2019-03-02T03:59:44.287Z,8.83
2019-03-02T04:04:48.741Z,9.43
2019-03-02T04:09:53.138Z,9.67
2019-03-02T04:15:01.459Z,10.13
2019-03-02T04:20:08.177Z,10.27
2019-03-02T04:25:13.089Z,11.03
2019-03-02T04:30:17.534Z,10.37
2019-03-02T04:35:21.883Z,10.83
2019-03-02T04:40:27.764Z,10.63
2019-03-02T04:45:32.318Z,10.77
2019-03-02T04:50:36.911Z,10.80
2019-03-02T04:55:41.262Z,11.80
2019-03-02T05:00:45.991Z,11.63
2019-03-02T05:05:50.390Z,13.57
2019-03-02T05:10:54.803Z,13.83
2019-03-02T05:15:59.173Z,14.80
2019-03-02T05:21:03.507Z,17.48
2019-03-02T05:26:07.865Z,18.13
2019-03-02T05:31:13.823Z,19.10
2019-03-02T05:36:18.288Z,19.10
2019-03-02T05:41:22.686Z,20.47
2019-03-02T05:46:27.053Z,18.67
2019-03-02T05:51:31.436Z,19.73
2019-03-02T05:56:35.799Z,20.40
2019-03-02T06:01:41.106Z,20.77
2019-03-02T06:06:45.536Z,21.70
2019-03-02T06:11:49.908Z,21.40
2019-03-02T06:16:57.363Z,20.77
2019-03-02T06:22:00.380Z,21.63
2019-03-02T06:27:07.761Z,21.83
2019-03-02T06:32:10.810Z,21.17
2019-03-02T06:37:17.000Z,21.20
2019-03-02T06:42:21.269Z,21.30
2019-03-02T06:47:25.613Z,20.87
2019-03-02T06:52:31.062Z,19.77
2019-03-02T06:57:35.448Z,20.47
2019-03-02T07:02:39.901Z,18.73
2019-03-02T07:07:44.273Z,18.70
2019-03-02T07:12:48.654Z,18.43
2019-03-02T07:18:09.779Z,19.67
2019-03-02T07:23:14.172Z,18.53
2019-03-02T07:28:18.550Z,18.57
2019-03-02T07:33:22.941Z,19.00
2019-03-02T07:38:27.332Z,18.23
2019-03-02T07:43:31.687Z,17.73
2019-03-02T07:48:36.724Z,16.97
2019-03-02T07:53:41.312Z,17.63
2019-03-02T07:58:45.689Z,17.27
2019-03-02T08:03:50.194Z,16.53
2019-03-02T08:08:54.643Z,15.23
2019-03-02T08:13:59.049Z,15.27
2019-03-02T08:19:03.975Z,15.80
2019-03-02T08:24:10.333Z,15.03
2019-03-02T08:29:17.783Z,14.87
2019-03-02T08:34:20.785Z,16.10
2019-03-02T08:39:25.152Z,15.37
2019-03-02T08:44:29.522Z,15.07
2019-03-02T08:49:34.500Z,14.90
2019-03-02T08:54:38.978Z,14.57
2019-03-02T08:59:43.339Z,15.03
2019-03-02T09:04:50.823Z,13.70
2019-03-02T09:09:53.923Z,14.00
2019-03-02T09:14:58.310Z,14.15
2019-03-02T09:20:02.919Z,13.17
2019-03-02T09:25:10.729Z,14.20
2019-03-02T09:30:20.097Z,13.67
2019-03-02T09:35:24.586Z,12.30
2019-03-02T09:40:28.990Z,12.13
2019-03-02T09:45:33.414Z,12.80
2019-03-02T09:50:37.848Z,12.87
2019-03-02T09:55:42.196Z,12.13
2019-03-02T10:00:46.568Z,12.63
2019-03-02T10:05:50.985Z,12.17
2019-03-02T10:10:55.470Z,12.00
2019-03-02T10:16:00.624Z,12.23
2019-03-02T10:21:06.974Z,12.27
2019-03-02T10:26:11.322Z,11.73
2019-03-02T10:31:15.783Z,11.13
2019-03-02T10:36:20.193Z,11.87
2019-03-02T10:41:24.579Z,12.47
2019-03-02T10:46:28.988Z,12.33
2019-03-02T10:51:34.042Z,12.33
2019-03-02T10:56:39.420Z,13.50
2019-03-02T11:01:44.910Z,13.17
2019-03-02T11:06:51.078Z,14.10
2019-03-02T11:12:02.946Z,14.03
2019-03-02T11:17:07.861Z,14.30
2019-03-02T11:22:16.721Z,13.50
2019-03-02T11:27:38.163Z,14.40
2019-03-02T11:32:59.622Z,14.80
2019-03-02T11:38:09.602Z,14.80
2019-03-02T11:43:21.516Z,14.93
2019-03-02T11:48:36.576Z,14.27
2019-03-02T11:53:48.663Z,13.97
2019-03-02T11:58:56.182Z,14.53
2019-03-02T12:04:08.029Z,15.30
2019-03-02T12:09:14.406Z,15.47
2019-03-02T12:14:29.527Z,16.03
2019-03-02T12:19:42.057Z,15.30
2019-03-02T12:24:50.328Z,15.57
2019-03-02T12:30:01.084Z,14.87
2019-03-02T12:35:09.672Z,15.80
2019-03-02T12:40:16.069Z,14.93
2019-03-02T12:45:30.120Z,14.63
2019-03-02T12:50:36.242Z,13.10
2019-03-02T12:55:56.920Z,12.43
2019-03-02T13:01:07.947Z,12.95
2019-03-02T13:06:13.960Z,11.53
2019-03-02T13:11:25.798Z,12.03
2019-03-02T13:16:33.367Z,10.83
2019-03-02T13:21:39.397Z,10.73
2019-03-02T13:26:48.784Z,10.87
2019-03-02T13:32:11.610Z,10.13
2019-03-02T13:37:20.341Z,11.20
2019-03-02T13:42:31.444Z,10.67
2019-03-02T13:47:44.951Z,10.83
2019-03-02T13:53:01.090Z,10.90
2019-03-02T13:58:10.348Z,10.77
2019-03-02T14:03:29.623Z,11.00
2019-03-02T14:08:52.117Z,10.43
2019-03-02T14:14:10.068Z,11.27
2019-03-02T14:19:30.396Z,11.23
2019-03-02T14:24:37.631Z,11.30
2019-03-02T14:29:58.784Z,11.20
2019-03-02T14:35:23.327Z,11.13
2019-03-02T14:40:30.511Z,10.97
2019-03-02T14:45:46.741Z,11.40
2019-03-02T14:50:54.440Z,11.27
2019-03-02T14:56:00.651Z,10.40
2019-03-02T15:01:08.745Z,11.00
2019-03-02T15:06:21.823Z,11.23
2019-03-02T15:11:28.269Z,10.97
2019-03-02T15:16:45.602Z,10.28
2019-03-02T15:21:51.639Z,10.97
2019-03-02T15:26:57.726Z,11.08
2019-03-02T15:32:03.951Z,11.57
2019-03-02T15:37:11.073Z,11.73
2019-03-02T15:42:23.360Z,11.73
2019-03-02T15:47:30.474Z,11.37
2019-03-02T15:52:55.468Z,11.20
2019-03-02T15:58:07.507Z,10.43
2019-03-02T16:03:15.080Z,10.33
2019-03-02T16:08:21.433Z,11.47
2019-03-02T16:13:30.138Z,11.50
2019-03-02T16:18:38.339Z,10.80
2019-03-02T16:23:47.271Z,11.10
2019-03-02T16:29:03.708Z,11.27
2019-03-02T16:34:12.414Z,12.37
2019-03-02T16:39:34.131Z,11.13
2019-03-02T16:44:40.497Z,11.37
2019-03-02T16:50:04.430Z,12.05
2019-03-02T16:55:22.748Z,13.23
2019-03-02T17:00:48.558Z,11.37
2019-03-02T17:06:10.913Z,12.17
2019-03-02T17:11:23.588Z,12.07
2019-03-02T17:16:37.010Z,13.30
2019-03-02T17:21:43.442Z,12.97
2019-03-02T17:27:06.265Z,13.30
2019-03-02T17:32:22.710Z,14.13
2019-03-02T17:37:45.225Z,14.10
2019-03-02T17:43:08.444Z,13.77
2019-03-02T17:48:31.357Z,13.85
2019-03-02T17:53:37.576Z,13.07
2019-03-02T17:58:53.023Z,12.73
2019-03-02T18:04:03.233Z,13.30
2019-03-02T18:09:24.010Z,14.17
2019-03-02T18:14:33.102Z,12.80
2019-03-02T18:19:39.675Z,14.40
2019-03-02T18:24:46.863Z,13.53
2019-03-02T18:29:51.868Z,14.47
2019-03-02T18:34:56.817Z,15.50
2019-03-02T18:40:03.987Z,14.10
2019-03-02T18:45:11.205Z,13.67
2019-03-02T18:50:19.031Z,14.07
2019-03-02T18:55:25.747Z,14.50
2019-03-02T19:00:31.477Z,14.03
2019-03-02T19:05:35.908Z,13.93
2019-03-02T19:10:43.226Z,14.43
2019-03-02T19:15:53.743Z,14.53
2019-03-02T19:20:53.632Z,14.70
2019-03-02T19:25:58.054Z,13.93
2019-03-02T19:31:02.410Z,13.15
2019-03-02T19:36:06.791Z,14.50
2019-03-02T19:41:11.158Z,14.83
2019-03-02T19:46:15.591Z,15.27
2019-03-02T19:51:20.116Z,14.97
2019-03-02T19:56:24.522Z,15.78
2019-03-02T20:01:28.881Z,16.13
2019-03-02T20:06:34.505Z,15.83
2019-03-02T20:11:38.971Z,17.07
2019-03-02T20:16:43.483Z,15.93
2019-03-02T20:21:48.026Z,15.80
2019-03-02T20:26:52.389Z,13.97
2019-03-02T20:31:56.775Z,15.17
2019-03-02T20:37:01.333Z,14.57
2019-03-02T20:42:05.863Z,14.77
2019-03-02T20:47:10.260Z,15.23
2019-03-02T20:52:14.675Z,15.53
2019-03-02T20:57:19.110Z,15.23
2019-03-02T21:02:23.467Z,15.53
2019-03-02T21:07:27.974Z,15.83
2019-03-02T21:12:32.625Z,16.83
2019-03-02T21:17:37.145Z,16.97
2019-03-02T21:22:41.781Z,16.17
2019-03-02T21:27:46.306Z,16.90
2019-03-02T21:32:50.658Z,16.90
2019-03-02T21:37:55.167Z,16.13
2019-03-02T21:42:59.543Z,16.37
2019-03-02T21:48:03.896Z,17.03
2019-03-02T21:53:08.447Z,17.13
2019-03-02T21:58:12.920Z,16.67
2019-03-02T22:03:17.353Z,17.00
2019-03-02T22:08:21.952Z,16.77
2019-03-02T22:13:26.296Z,17.05
2019-03-02T22:18:37.567Z,16.67
2019-03-02T22:23:42.287Z,16.90
2019-03-02T22:28:46.871Z,16.93
2019-03-02T22:33:51.263Z,16.97
2019-03-02T22:38:55.639Z,17.57
2019-03-02T22:44:00.006Z,17.87
2019-03-02T22:49:04.413Z,17.47
2019-03-02T22:54:08.872Z,18.10
2019-03-02T22:59:13.228Z,18.13
2019-03-02T23:04:17.653Z,18.93
2019-03-02T23:09:21.999Z,18.77
2019-03-02T23:14:26.377Z,18.57
2019-03-02T23:19:30.858Z,18.40
2019-03-02T23:24:36.465Z,18.53
2019-03-02T23:29:45.062Z,18.43
2019-03-02T23:34:51.216Z,18.40
2019-03-02T23:39:57.241Z,19.20
2019-03-02T23:45:02.876Z,18.57
2019-03-02T23:50:10.319Z,19.07
2019-03-02T23:55:18.453Z,18.87
